sensor_id;sensor_type;location;lat;lon;timestamp;P1;durP1;ratioP1;P2;durP2;ratioP2
61393;SDS011;48555;50.952;-0.120;2023-05-14T00:02:18;17.25;;;14.85;;
61393;SDS011;48555;50.952;-0.120;2023-05-14T00:04:43;16.70;;;13.48;;
61393;SDS011;48555;50.952;-0.120;2023-05-14T00:07:09;19.88;;;16.27;;
61393;SDS011;48555;50.952;-0.120;2023-05-14T00:09:34;17.88;;;15.10;;
61393;SDS011;48555;50.952;-0.120;2023-05-14T00:12:00;20.17;;;15.50;;
61393;SDS011;48555;50.952;-0.120;2023-05-14T00:14:25;18.77;;;15.18;;
61393;SDS011;48555;50.952;-0.120;2023-05-14T00:16:51;18.33;;;13.93;;
61393;SDS011;48555;50.952;-0.120;2023-05-14T00:19:16;21.23;;;16.80;;
61393;SDS011;48555;50.952;-0.120;2023-05-14T00:21:41;21.23;;;17.98;;
61393;SDS011;48555;50.952;-0.120;2023-05-14T00:24:07;20.60;;;17.25;;
61393;SDS011;48555;50.952;-0.120;2023-05-14T00:26:32;20.30;;;17.05;;
61393;SDS011;48555;50.952;-0.120;2023-05-14T00:28:57;21.35;;;16.27;;
61393;SDS011;48555;50.952;-0.120;2023-05-14T00:31:23;22.33;;;17.80;;
61393;SDS011;48555;50.952;-0.120;2023-05-14T00:33:48;23.25;;;17.23;;
61393;SDS011;48555;50.952;-0.120;2023-05-14T00:36:14;20.98;;;17.42;;
61393;SDS011;48555;50.952;-0.120;2023-05-14T00:38:39;20.77;;;17.52;;
61393;SDS011;48555;50.952;-0.120;2023-05-14T00:41:04;19.95;;;16.35;;
61393;SDS011;48555;50.952;-0.120;2023-05-14T00:43:30;21.77;;;17.13;;
61393;SDS011;48555;50.952;-0.120;2023-05-14T00:45:57;21.30;;;16.77;;
61393;SDS011;48555;50.952;-0.120;2023-05-14T00:48:23;19.95;;;15.32;;
61393;SDS011;48555;50.952;-0.120;2023-05-14T00:50:48;21.23;;;16.95;;
61393;SDS011;48555;50.952;-0.120;2023-05-14T00:53:15;19.73;;;14.35;;
61393;SDS011;48555;50.952;-0.120;2023-05-14T00:55:41;18.75;;;14.90;;
61393;SDS011;48555;50.952;-0.120;2023-05-14T00:58:11;18.15;;;13.80;;
61393;SDS011;48555;50.952;-0.120;2023-05-14T01:00:38;20.17;;;14.90;;
61393;SDS011;48555;50.952;-0.120;2023-05-14T01:03:04;19.60;;;13.90;;
61393;SDS011;48555;50.952;-0.120;2023-05-14T01:08:31;22.20;;;16.60;;
61393;SDS011;48555;50.952;-0.120;2023-05-14T01:16:45;19.88;;;15.27;;
61393;SDS011;48555;50.952;-0.120;2023-05-14T01:19:25;20.10;;;15.82;;
61393;SDS011;48555;50.952;-0.120;2023-05-14T01:22:05;21.90;;;17.45;;
61393;SDS011;48555;50.952;-0.120;2023-05-14T01:24:31;21.35;;;16.27;;
61393;SDS011;48555;50.952;-0.120;2023-05-14T01:27:01;21.92;;;16.08;;
61393;SDS011;48555;50.952;-0.120;2023-05-14T01:29:31;21.35;;;16.50;;
61393;SDS011;48555;50.952;-0.120;2023-05-14T01:32:00;20.70;;;16.17;;
61393;SDS011;48555;50.952;-0.120;2023-05-14T01:34:31;20.58;;;16.15;;
61393;SDS011;48555;50.952;-0.120;2023-05-14T01:36:59;21.85;;;17.75;;
61393;SDS011;48555;50.952;-0.120;2023-05-14T01:39:25;20.98;;;16.00;;
61393;SDS011;48555;50.952;-0.120;2023-05-14T01:41:52;21.08;;;15.95;;
61393;SDS011;48555;50.952;-0.120;2023-05-14T01:44:18;23.48;;;18.75;;
61393;SDS011;48555;50.952;-0.120;2023-05-14T01:46:44;22.25;;;15.63;;
61393;SDS011;48555;50.952;-0.120;2023-05-14T01:49:09;21.63;;;15.85;;
61393;SDS011;48555;50.952;-0.120;2023-05-14T01:51:34;20.63;;;15.80;;
61393;SDS011;48555;50.952;-0.120;2023-05-14T01:54:00;20.90;;;16.73;;
61393;SDS011;48555;50.952;-0.120;2023-05-14T01:56:25;23.35;;;17.83;;
61393;SDS011;48555;50.952;-0.120;2023-05-14T01:58:51;22.35;;;15.90;;
61393;SDS011;48555;50.952;-0.120;2023-05-14T02:01:16;19.02;;;14.93;;
61393;SDS011;48555;50.952;-0.120;2023-05-14T02:03:42;22.80;;;17.00;;
61393;SDS011;48555;50.952;-0.120;2023-05-14T02:06:07;20.83;;;15.85;;
61393;SDS011;48555;50.952;-0.120;2023-05-14T02:08:32;20.77;;;15.70;;
61393;SDS011;48555;50.952;-0.120;2023-05-14T02:10:58;20.80;;;14.95;;
61393;SDS011;48555;50.952;-0.120;2023-05-14T02:13:23;20.67;;;15.48;;
61393;SDS011;48555;50.952;-0.120;2023-05-14T02:15:50;21.27;;;14.60;;
61393;SDS011;48555;50.952;-0.120;2023-05-14T02:18:15;19.75;;;14.13;;
61393;SDS011;48555;50.952;-0.120;2023-05-14T02:20:41;22.08;;;15.57;;
61393;SDS011;48555;50.952;-0.120;2023-05-14T02:23:06;19.23;;;14.02;;
61393;SDS011;48555;50.952;-0.120;2023-05-14T02:25:32;21.02;;;16.00;;
61393;SDS011;48555;50.952;-0.120;2023-05-14T02:27:57;22.02;;;16.70;;
61393;SDS011;48555;50.952;-0.120;2023-05-14T02:30:22;19.63;;;14.98;;
61393;SDS011;48555;50.952;-0.120;2023-05-14T02:32:48;22.33;;;16.77;;
61393;SDS011;48555;50.952;-0.120;2023-05-14T02:35:13;21.25;;;16.13;;
61393;SDS011;48555;50.952;-0.120;2023-05-14T02:37:38;24.45;;;17.35;;
61393;SDS011;48555;50.952;-0.120;2023-05-14T02:40:04;24.42;;;18.48;;
61393;SDS011;48555;50.952;-0.120;2023-05-14T02:42:30;22.65;;;17.45;;
61393;SDS011;48555;50.952;-0.120;2023-05-14T02:44:55;23.20;;;18.08;;
61393;SDS011;48555;50.952;-0.120;2023-05-14T02:47:21;25.98;;;18.83;;
61393;SDS011;48555;50.952;-0.120;2023-05-14T02:49:46;22.88;;;16.92;;
61393;SDS011;48555;50.952;-0.120;2023-05-14T02:52:11;27.35;;;18.95;;
61393;SDS011;48555;50.952;-0.120;2023-05-14T02:54:37;23.30;;;17.77;;
61393;SDS011;48555;50.952;-0.120;2023-05-14T02:57:02;26.52;;;20.27;;
61393;SDS011;48555;50.952;-0.120;2023-05-14T02:59:28;24.58;;;19.20;;
61393;SDS011;48555;50.952;-0.120;2023-05-14T03:01:54;27.98;;;20.35;;
61393;SDS011;48555;50.952;-0.120;2023-05-14T03:04:19;27.27;;;19.10;;
61393;SDS011;48555;50.952;-0.120;2023-05-14T03:06:44;26.85;;;18.08;;
61393;SDS011;48555;50.952;-0.120;2023-05-14T03:09:10;24.30;;;17.70;;
61393;SDS011;48555;50.952;-0.120;2023-05-14T03:11:35;26.30;;;20.13;;
61393;SDS011;48555;50.952;-0.120;2023-05-14T03:14:00;28.98;;;20.77;;
61393;SDS011;48555;50.952;-0.120;2023-05-14T03:16:26;25.17;;;18.35;;
61393;SDS011;48555;50.952;-0.120;2023-05-14T03:18:51;24.65;;;17.30;;
61393;SDS011;48555;50.952;-0.120;2023-05-14T03:21:17;27.30;;;18.23;;
61393;SDS011;48555;50.952;-0.120;2023-05-14T03:23:42;27.40;;;20.13;;
61393;SDS011;48555;50.952;-0.120;2023-05-14T03:26:08;27.40;;;18.80;;
61393;SDS011;48555;50.952;-0.120;2023-05-14T03:28:33;25.85;;;18.55;;
61393;SDS011;48555;50.952;-0.120;2023-05-14T03:30:58;26.60;;;18.98;;
61393;SDS011;48555;50.952;-0.120;2023-05-14T03:33:24;25.13;;;19.10;;
61393;SDS011;48555;50.952;-0.120;2023-05-14T03:35:49;25.90;;;18.67;;
61393;SDS011;48555;50.952;-0.120;2023-05-14T03:38:15;23.27;;;17.83;;
61393;SDS011;48555;50.952;-0.120;2023-05-14T03:40:41;28.60;;;19.52;;
61393;SDS011;48555;50.952;-0.120;2023-05-14T03:43:06;27.15;;;19.02;;
61393;SDS011;48555;50.952;-0.120;2023-05-14T03:45:32;25.63;;;19.30;;
61393;SDS011;48555;50.952;-0.120;2023-05-14T03:47:57;28.48;;;20.60;;
61393;SDS011;48555;50.952;-0.120;2023-05-14T03:50:23;28.05;;;19.80;;
61393;SDS011;48555;50.952;-0.120;2023-05-14T03:52:49;27.23;;;20.17;;
61393;SDS011;48555;50.952;-0.120;2023-05-14T03:55:16;25.63;;;19.85;;
61393;SDS011;48555;50.952;-0.120;2023-05-14T03:57:45;27.13;;;19.50;;
61393;SDS011;48555;50.952;-0.120;2023-05-14T04:00:11;29.45;;;20.90;;
61393;SDS011;48555;50.952;-0.120;2023-05-14T04:02:37;31.75;;;22.17;;
61393;SDS011;48555;50.952;-0.120;2023-05-14T04:05:03;29.48;;;21.00;;
61393;SDS011;48555;50.952;-0.120;2023-05-14T04:07:28;30.75;;;22.13;;
61393;SDS011;48555;50.952;-0.120;2023-05-14T04:09:54;33.47;;;22.65;;
61393;SDS011;48555;50.952;-0.120;2023-05-14T04:12:19;31.48;;;22.45;;
61393;SDS011;48555;50.952;-0.120;2023-05-14T04:14:44;29.67;;;18.83;;
61393;SDS011;48555;50.952;-0.120;2023-05-14T04:17:10;27.65;;;18.25;;
61393;SDS011;48555;50.952;-0.120;2023-05-14T04:19:35;27.60;;;18.48;;
61393;SDS011;48555;50.952;-0.120;2023-05-14T04:22:01;30.27;;;21.67;;
61393;SDS011;48555;50.952;-0.120;2023-05-14T04:24:26;33.00;;;22.02;;
61393;SDS011;48555;50.952;-0.120;2023-05-14T04:26:51;34.38;;;22.83;;
61393;SDS011;48555;50.952;-0.120;2023-05-14T04:29:17;31.42;;;23.05;;
61393;SDS011;48555;50.952;-0.120;2023-05-14T04:31:42;32.40;;;21.92;;
61393;SDS011;48555;50.952;-0.120;2023-05-14T04:34:08;31.38;;;22.52;;
61393;SDS011;48555;50.952;-0.120;2023-05-14T04:36:33;32.80;;;23.20;;
61393;SDS011;48555;50.952;-0.120;2023-05-14T04:38:59;33.67;;;23.05;;
61393;SDS011;48555;50.952;-0.120;2023-05-14T04:41:24;34.92;;;23.67;;
61393;SDS011;48555;50.952;-0.120;2023-05-14T04:43:50;33.50;;;23.33;;
61393;SDS011;48555;50.952;-0.120;2023-05-14T04:46:15;35.85;;;22.83;;
61393;SDS011;48555;50.952;-0.120;2023-05-14T04:48:40;34.25;;;22.90;;
61393;SDS011;48555;50.952;-0.120;2023-05-14T04:51:06;35.15;;;24.02;;
61393;SDS011;48555;50.952;-0.120;2023-05-14T04:53:31;34.35;;;24.27;;
61393;SDS011;48555;50.952;-0.120;2023-05-14T04:55:57;34.47;;;23.42;;
61393;SDS011;48555;50.952;-0.120;2023-05-14T04:58:22;35.38;;;24.52;;
61393;SDS011;48555;50.952;-0.120;2023-05-14T05:00:48;32.78;;;23.08;;
61393;SDS011;48555;50.952;-0.120;2023-05-14T05:03:14;35.72;;;24.83;;
61393;SDS011;48555;50.952;-0.120;2023-05-14T05:05:39;35.33;;;24.10;;
61393;SDS011;48555;50.952;-0.120;2023-05-14T05:08:05;32.85;;;23.58;;
61393;SDS011;48555;50.952;-0.120;2023-05-14T05:10:30;34.38;;;23.80;;
61393;SDS011;48555;50.952;-0.120;2023-05-14T05:12:55;34.75;;;23.50;;
61393;SDS011;48555;50.952;-0.120;2023-05-14T05:15:21;34.85;;;24.98;;
61393;SDS011;48555;50.952;-0.120;2023-05-14T05:17:46;35.13;;;24.33;;
61393;SDS011;48555;50.952;-0.120;2023-05-14T05:20:12;32.70;;;23.40;;
61393;SDS011;48555;50.952;-0.120;2023-05-14T05:22:37;35.70;;;23.98;;
61393;SDS011;48555;50.952;-0.120;2023-05-14T05:25:03;37.60;;;26.52;;
61393;SDS011;48555;50.952;-0.120;2023-05-14T05:27:33;34.25;;;24.38;;
61393;SDS011;48555;50.952;-0.120;2023-05-14T05:30:00;34.22;;;24.00;;
61393;SDS011;48555;50.952;-0.120;2023-05-14T05:32:26;34.40;;;22.70;;
61393;SDS011;48555;50.952;-0.120;2023-05-14T05:34:51;33.15;;;24.38;;
61393;SDS011;48555;50.952;-0.120;2023-05-14T05:37:17;34.03;;;24.05;;
61393;SDS011;48555;50.952;-0.120;2023-05-14T05:39:42;33.30;;;23.58;;
61393;SDS011;48555;50.952;-0.120;2023-05-14T05:42:07;34.25;;;24.85;;
61393;SDS011;48555;50.952;-0.120;2023-05-14T05:44:33;34.47;;;24.75;;
61393;SDS011;48555;50.952;-0.120;2023-05-14T05:46:58;31.50;;;22.65;;
61393;SDS011;48555;50.952;-0.120;2023-05-14T05:49:24;38.13;;;25.77;;
61393;SDS011;48555;50.952;-0.120;2023-05-14T05:51:50;36.58;;;24.77;;
61393;SDS011;48555;50.952;-0.120;2023-05-14T05:54:15;37.60;;;25.05;;
61393;SDS011;48555;50.952;-0.120;2023-05-14T05:56:40;34.47;;;24.67;;
61393;SDS011;48555;50.952;-0.120;2023-05-14T05:59:06;35.38;;;24.23;;
61393;SDS011;48555;50.952;-0.120;2023-05-14T06:01:32;35.50;;;24.20;;
61393;SDS011;48555;50.952;-0.120;2023-05-14T06:03:57;31.80;;;22.88;;
61393;SDS011;48555;50.952;-0.120;2023-05-14T06:06:22;34.13;;;23.33;;
61393;SDS011;48555;50.952;-0.120;2023-05-14T06:08:48;33.70;;;24.05;;
61393;SDS011;48555;50.952;-0.120;2023-05-14T06:11:13;34.90;;;23.27;;
61393;SDS011;48555;50.952;-0.120;2023-05-14T06:13:39;32.63;;;23.33;;
61393;SDS011;48555;50.952;-0.120;2023-05-14T06:16:04;33.25;;;22.25;;
61393;SDS011;48555;50.952;-0.120;2023-05-14T06:18:30;30.75;;;20.58;;
61393;SDS011;48555;50.952;-0.120;2023-05-14T06:20:55;30.63;;;21.92;;
61393;SDS011;48555;50.952;-0.120;2023-05-14T06:23:23;32.33;;;22.38;;
61393;SDS011;48555;50.952;-0.120;2023-05-14T06:25:50;29.85;;;21.63;;
61393;SDS011;48555;50.952;-0.120;2023-05-14T06:28:15;31.70;;;22.83;;
61393;SDS011;48555;50.952;-0.120;2023-05-14T06:30:41;35.22;;;24.60;;
61393;SDS011;48555;50.952;-0.120;2023-05-14T06:33:06;32.70;;;21.77;;
61393;SDS011;48555;50.952;-0.120;2023-05-14T06:35:31;32.38;;;22.95;;
61393;SDS011;48555;50.952;-0.120;2023-05-14T06:37:58;32.13;;;21.98;;
61393;SDS011;48555;50.952;-0.120;2023-05-14T06:40:24;31.48;;;22.08;;
61393;SDS011;48555;50.952;-0.120;2023-05-14T06:42:49;31.67;;;21.05;;
61393;SDS011;48555;50.952;-0.120;2023-05-14T06:45:14;35.50;;;22.85;;
61393;SDS011;48555;50.952;-0.120;2023-05-14T06:47:40;34.17;;;22.20;;
61393;SDS011;48555;50.952;-0.120;2023-05-14T06:50:05;34.85;;;23.40;;
61393;SDS011;48555;50.952;-0.120;2023-05-14T06:52:31;34.03;;;23.02;;
61393;SDS011;48555;50.952;-0.120;2023-05-14T06:54:56;32.13;;;22.92;;
61393;SDS011;48555;50.952;-0.120;2023-05-14T06:57:22;31.50;;;22.02;;
61393;SDS011;48555;50.952;-0.120;2023-05-14T06:59:47;30.70;;;23.35;;
61393;SDS011;48555;50.952;-0.120;2023-05-14T07:02:12;31.73;;;22.73;;
61393;SDS011;48555;50.952;-0.120;2023-05-14T07:04:38;33.13;;;23.63;;
61393;SDS011;48555;50.952;-0.120;2023-05-14T07:07:03;30.02;;;21.60;;
61393;SDS011;48555;50.952;-0.120;2023-05-14T07:09:29;28.45;;;21.95;;
61393;SDS011;48555;50.952;-0.120;2023-05-14T07:11:55;33.97;;;24.23;;
61393;SDS011;48555;50.952;-0.120;2023-05-14T07:14:20;29.98;;;22.00;;
61393;SDS011;48555;50.952;-0.120;2023-05-14T07:16:45;31.15;;;21.85;;
61393;SDS011;48555;50.952;-0.120;2023-05-14T07:19:11;31.95;;;23.25;;
61393;SDS011;48555;50.952;-0.120;2023-05-14T07:21:37;34.72;;;23.75;;
61393;SDS011;48555;50.952;-0.120;2023-05-14T07:24:02;31.55;;;22.88;;
61393;SDS011;48555;50.952;-0.120;2023-05-14T07:26:27;36.08;;;24.45;;
61393;SDS011;48555;50.952;-0.120;2023-05-14T07:28:53;36.03;;;23.85;;
61393;SDS011;48555;50.952;-0.120;2023-05-14T07:31:18;29.83;;;22.33;;
61393;SDS011;48555;50.952;-0.120;2023-05-14T07:33:44;30.05;;;20.92;;
61393;SDS011;48555;50.952;-0.120;2023-05-14T07:36:09;33.15;;;23.80;;
61393;SDS011;48555;50.952;-0.120;2023-05-14T07:38:34;30.83;;;22.23;;
61393;SDS011;48555;50.952;-0.120;2023-05-14T07:41:00;29.35;;;21.10;;
61393;SDS011;48555;50.952;-0.120;2023-05-14T07:43:26;30.40;;;22.30;;
61393;SDS011;48555;50.952;-0.120;2023-05-14T07:45:51;29.92;;;20.67;;
61393;SDS011;48555;50.952;-0.120;2023-05-14T07:48:16;29.92;;;21.35;;
61393;SDS011;48555;50.952;-0.120;2023-05-14T07:50:42;32.95;;;24.35;;
61393;SDS011;48555;50.952;-0.120;2023-05-14T07:53:07;29.90;;;22.80;;
61393;SDS011;48555;50.952;-0.120;2023-05-14T07:55:33;29.65;;;23.13;;
61393;SDS011;48555;50.952;-0.120;2023-05-14T07:57:58;31.23;;;23.38;;
61393;SDS011;48555;50.952;-0.120;2023-05-14T08:00:24;29.85;;;22.05;;
61393;SDS011;48555;50.952;-0.120;2023-05-14T08:02:49;31.95;;;22.70;;
61393;SDS011;48555;50.952;-0.120;2023-05-14T08:05:16;31.40;;;21.85;;
61393;SDS011;48555;50.952;-0.120;2023-05-14T08:07:42;31.13;;;21.63;;
61393;SDS011;48555;50.952;-0.120;2023-05-14T08:10:07;30.48;;;22.27;;
61393;SDS011;48555;50.952;-0.120;2023-05-14T08:12:33;32.67;;;23.85;;
61393;SDS011;48555;50.952;-0.120;2023-05-14T08:14:58;32.47;;;23.85;;
61393;SDS011;48555;50.952;-0.120;2023-05-14T08:17:24;29.23;;;22.17;;
61393;SDS011;48555;50.952;-0.120;2023-05-14T08:19:49;31.50;;;23.15;;
61393;SDS011;48555;50.952;-0.120;2023-05-14T08:22:15;30.70;;;22.48;;
61393;SDS011;48555;50.952;-0.120;2023-05-14T08:24:40;31.98;;;23.77;;
61393;SDS011;48555;50.952;-0.120;2023-05-14T08:27:07;30.27;;;22.40;;
61393;SDS011;48555;50.952;-0.120;2023-05-14T08:29:32;32.53;;;23.23;;
61393;SDS011;48555;50.952;-0.120;2023-05-14T08:31:58;31.17;;;22.17;;
61393;SDS011;48555;50.952;-0.120;2023-05-14T08:34:23;30.45;;;22.73;;
61393;SDS011;48555;50.952;-0.120;2023-05-14T08:36:49;29.25;;;21.50;;
61393;SDS011;48555;50.952;-0.120;2023-05-14T08:39:14;28.70;;;21.60;;
61393;SDS011;48555;50.952;-0.120;2023-05-14T08:41:40;26.60;;;21.02;;
61393;SDS011;48555;50.952;-0.120;2023-05-14T08:44:06;26.20;;;21.23;;
61393;SDS011;48555;50.952;-0.120;2023-05-14T08:46:36;25.02;;;20.40;;
61393;SDS011;48555;50.952;-0.120;2023-05-14T08:51:57;26.45;;;21.52;;
61393;SDS011;48555;50.952;-0.120;2023-05-14T08:54:24;26.67;;;21.40;;
61393;SDS011;48555;50.952;-0.120;2023-05-14T08:56:51;25.70;;;21.13;;
61393;SDS011;48555;50.952;-0.120;2023-05-14T08:59:17;24.90;;;20.40;;
61393;SDS011;48555;50.952;-0.120;2023-05-14T09:01:43;23.52;;;20.23;;
61393;SDS011;48555;50.952;-0.120;2023-05-14T09:04:12;24.95;;;21.25;;
61393;SDS011;48555;50.952;-0.120;2023-05-14T09:06:40;26.70;;;20.60;;
61393;SDS011;48555;50.952;-0.120;2023-05-14T09:09:07;25.90;;;20.33;;
61393;SDS011;48555;50.952;-0.120;2023-05-14T09:11:39;23.35;;;18.48;;
61393;SDS011;48555;50.952;-0.120;2023-05-14T09:14:05;23.83;;;20.48;;
61393;SDS011;48555;50.952;-0.120;2023-05-14T09:16:31;26.60;;;20.67;;
61393;SDS011;48555;50.952;-0.120;2023-05-14T09:18:56;24.52;;;19.33;;
61393;SDS011;48555;50.952;-0.120;2023-05-14T09:21:22;23.83;;;20.13;;
61393;SDS011;48555;50.952;-0.120;2023-05-14T09:23:47;22.63;;;18.80;;
61393;SDS011;48555;50.952;-0.120;2023-05-14T09:26:17;22.38;;;19.02;;
61393;SDS011;48555;50.952;-0.120;2023-05-14T09:28:43;23.30;;;19.15;;
61393;SDS011;48555;50.952;-0.120;2023-05-14T09:31:08;23.30;;;19.17;;
61393;SDS011;48555;50.952;-0.120;2023-05-14T09:33:34;24.42;;;18.83;;
61393;SDS011;48555;50.952;-0.120;2023-05-14T09:36:00;21.63;;;19.33;;
61393;SDS011;48555;50.952;-0.120;2023-05-14T09:38:32;20.92;;;18.48;;
61393;SDS011;48555;50.952;-0.120;2023-05-14T09:40:58;20.77;;;17.13;;
61393;SDS011;48555;50.952;-0.120;2023-05-14T09:43:24;20.33;;;16.85;;
61393;SDS011;48555;50.952;-0.120;2023-05-14T09:45:51;20.60;;;17.13;;
61393;SDS011;48555;50.952;-0.120;2023-05-14T09:48:16;20.60;;;17.70;;
61393;SDS011;48555;50.952;-0.120;2023-05-14T09:50:42;21.15;;;17.73;;
61393;SDS011;48555;50.952;-0.120;2023-05-14T09:53:09;21.23;;;17.92;;
61393;SDS011;48555;50.952;-0.120;2023-05-14T09:55:35;19.00;;;16.65;;
61393;SDS011;48555;50.952;-0.120;2023-05-14T09:58:01;19.52;;;16.67;;
61393;SDS011;48555;50.952;-0.120;2023-05-14T10:00:27;19.42;;;15.90;;
61393;SDS011;48555;50.952;-0.120;2023-05-14T10:02:54;19.73;;;15.18;;
61393;SDS011;48555;50.952;-0.120;2023-05-14T10:05:21;17.05;;;14.43;;
61393;SDS011;48555;50.952;-0.120;2023-05-14T10:07:47;18.00;;;15.38;;
61393;SDS011;48555;50.952;-0.120;2023-05-14T10:10:15;16.90;;;14.45;;
61393;SDS011;48555;50.952;-0.120;2023-05-14T10:12:45;18.38;;;14.75;;
61393;SDS011;48555;50.952;-0.120;2023-05-14T10:15:19;17.55;;;14.68;;
61393;SDS011;48555;50.952;-0.120;2023-05-14T10:17:53;17.60;;;15.35;;
61393;SDS011;48555;50.952;-0.120;2023-05-14T10:20:21;18.30;;;14.80;;
61393;SDS011;48555;50.952;-0.120;2023-05-14T10:22:47;17.10;;;14.60;;
61393;SDS011;48555;50.952;-0.120;2023-05-14T10:25:12;17.60;;;15.63;;
61393;SDS011;48555;50.952;-0.120;2023-05-14T10:27:39;16.70;;;14.35;;
61393;SDS011;48555;50.952;-0.120;2023-05-14T10:30:05;16.75;;;14.68;;
61393;SDS011;48555;50.952;-0.120;2023-05-14T10:35:05;16.02;;;14.30;;
61393;SDS011;48555;50.952;-0.120;2023-05-14T10:37:40;16.50;;;14.57;;
61393;SDS011;48555;50.952;-0.120;2023-05-14T10:40:06;16.00;;;13.98;;
61393;SDS011;48555;50.952;-0.120;2023-05-14T10:42:32;17.10;;;14.38;;
61393;SDS011;48555;50.952;-0.120;2023-05-14T10:45:07;18.10;;;15.05;;
61393;SDS011;48555;50.952;-0.120;2023-05-14T10:47:35;16.67;;;14.43;;
61393;SDS011;48555;50.952;-0.120;2023-05-14T10:50:03;16.23;;;14.40;;
61393;SDS011;48555;50.952;-0.120;2023-05-14T10:52:30;16.00;;;13.48;;
61393;SDS011;48555;50.952;-0.120;2023-05-14T10:55:03;15.63;;;13.40;;
61393;SDS011;48555;50.952;-0.120;2023-05-14T10:57:35;16.27;;;13.55;;
61393;SDS011;48555;50.952;-0.120;2023-05-14T11:00:02;14.77;;;13.18;;
61393;SDS011;48555;50.952;-0.120;2023-05-14T11:02:28;15.10;;;12.85;;
61393;SDS011;48555;50.952;-0.120;2023-05-14T11:07:29;15.30;;;13.30;;
61393;SDS011;48555;50.952;-0.120;2023-05-14T11:10:04;17.47;;;13.80;;
61393;SDS011;48555;50.952;-0.120;2023-05-14T11:12:31;15.48;;;12.88;;
61393;SDS011;48555;50.952;-0.120;2023-05-14T11:14:59;18.73;;;15.18;;
61393;SDS011;48555;50.952;-0.120;2023-05-14T11:17:26;17.23;;;14.30;;
61393;SDS011;48555;50.952;-0.120;2023-05-14T11:19:53;16.90;;;14.50;;
61393;SDS011;48555;50.952;-0.120;2023-05-14T11:22:19;16.25;;;13.88;;
61393;SDS011;48555;50.952;-0.120;2023-05-14T11:24:45;19.08;;;15.30;;
61393;SDS011;48555;50.952;-0.120;2023-05-14T11:27:10;15.80;;;13.50;;
61393;SDS011;48555;50.952;-0.120;2023-05-14T11:29:36;17.35;;;13.68;;
61393;SDS011;48555;50.952;-0.120;2023-05-14T11:32:05;16.15;;;14.45;;
61393;SDS011;48555;50.952;-0.120;2023-05-14T11:34:31;16.13;;;14.35;;
61393;SDS011;48555;50.952;-0.120;2023-05-14T11:36:58;15.75;;;13.50;;
61393;SDS011;48555;50.952;-0.120;2023-05-14T11:39:26;16.75;;;13.32;;
61393;SDS011;48555;50.952;-0.120;2023-05-14T11:41:52;16.02;;;13.93;;
61393;SDS011;48555;50.952;-0.120;2023-05-14T11:44:17;16.90;;;14.15;;
61393;SDS011;48555;50.952;-0.120;2023-05-14T11:46:52;15.45;;;12.88;;
61393;SDS011;48555;50.952;-0.120;2023-05-14T11:49:24;14.98;;;11.88;;
61393;SDS011;48555;50.952;-0.120;2023-05-14T11:51:59;15.10;;;13.20;;
61393;SDS011;48555;50.952;-0.120;2023-05-14T11:54:26;15.73;;;13.30;;
61393;SDS011;48555;50.952;-0.120;2023-05-14T11:56:53;15.52;;;13.70;;
61393;SDS011;48555;50.952;-0.120;2023-05-14T11:59:19;18.05;;;14.50;;
61393;SDS011;48555;50.952;-0.120;2023-05-14T12:01:45;16.63;;;14.93;;
61393;SDS011;48555;50.952;-0.120;2023-05-14T12:04:11;15.10;;;13.32;;
61393;SDS011;48555;50.952;-0.120;2023-05-14T12:06:42;15.13;;;12.80;;
61393;SDS011;48555;50.952;-0.120;2023-05-14T12:09:08;15.52;;;13.93;;
61393;SDS011;48555;50.952;-0.120;2023-05-14T12:11:36;15.18;;;13.57;;
61393;SDS011;48555;50.952;-0.120;2023-05-14T12:14:08;17.30;;;14.90;;
61393;SDS011;48555;50.952;-0.120;2023-05-14T12:16:44;16.20;;;14.50;;
61393;SDS011;48555;50.952;-0.120;2023-05-14T12:19:10;16.80;;;15.00;;
61393;SDS011;48555;50.952;-0.120;2023-05-14T12:21:39;16.33;;;14.60;;
61393;SDS011;48555;50.952;-0.120;2023-05-14T12:24:11;18.63;;;16.67;;
61393;SDS011;48555;50.952;-0.120;2023-05-14T12:26:38;18.60;;;16.25;;
61393;SDS011;48555;50.952;-0.120;2023-05-14T12:29:04;18.58;;;16.25;;
61393;SDS011;48555;50.952;-0.120;2023-05-14T12:31:33;19.70;;;17.38;;
61393;SDS011;48555;50.952;-0.120;2023-05-14T12:34:00;18.40;;;16.55;;
61393;SDS011;48555;50.952;-0.120;2023-05-14T12:36:26;19.95;;;16.50;;
61393;SDS011;48555;50.952;-0.120;2023-05-14T12:38:59;18.05;;;16.13;;
61393;SDS011;48555;50.952;-0.120;2023-05-14T12:41:26;20.10;;;15.77;;
61393;SDS011;48555;50.952;-0.120;2023-05-14T12:43:51;18.35;;;15.98;;
61393;SDS011;48555;50.952;-0.120;2023-05-14T12:46:17;17.33;;;15.52;;
61393;SDS011;48555;50.952;-0.120;2023-05-14T12:48:42;17.25;;;15.45;;
61393;SDS011;48555;50.952;-0.120;2023-05-14T12:51:07;18.17;;;16.02;;
61393;SDS011;48555;50.952;-0.120;2023-05-14T12:53:33;16.77;;;15.00;;
61393;SDS011;48555;50.952;-0.120;2023-05-14T12:55:59;17.08;;;15.27;;
61393;SDS011;48555;50.952;-0.120;2023-05-14T12:58:24;16.17;;;14.43;;
61393;SDS011;48555;50.952;-0.120;2023-05-14T13:00:50;16.45;;;14.80;;
61393;SDS011;48555;50.952;-0.120;2023-05-14T13:03:15;17.08;;;14.73;;
61393;SDS011;48555;50.952;-0.120;2023-05-14T13:05:40;16.35;;;14.65;;
61393;SDS011;48555;50.952;-0.120;2023-05-14T13:08:06;17.05;;;14.60;;
61393;SDS011;48555;50.952;-0.120;2023-05-14T13:10:33;16.38;;;14.43;;
61393;SDS011;48555;50.952;-0.120;2023-05-14T13:12:59;18.08;;;14.57;;
61393;SDS011;48555;50.952;-0.120;2023-05-14T13:15:26;18.42;;;14.05;;
61393;SDS011;48555;50.952;-0.120;2023-05-14T13:17:51;18.00;;;14.57;;
61393;SDS011;48555;50.952;-0.120;2023-05-14T13:20:16;15.65;;;13.57;;
61393;SDS011;48555;50.952;-0.120;2023-05-14T13:22:42;23.42;;;15.15;;
61393;SDS011;48555;50.952;-0.120;2023-05-14T13:25:08;15.90;;;13.73;;
61393;SDS011;48555;50.952;-0.120;2023-05-14T13:27:33;17.25;;;14.23;;
61393;SDS011;48555;50.952;-0.120;2023-05-14T13:30:00;18.10;;;14.68;;
61393;SDS011;48555;50.952;-0.120;2023-05-14T13:32:26;17.38;;;13.95;;
61393;SDS011;48555;50.952;-0.120;2023-05-14T13:34:51;15.63;;;13.73;;
61393;SDS011;48555;50.952;-0.120;2023-05-14T13:37:17;18.58;;;14.35;;
61393;SDS011;48555;50.952;-0.120;2023-05-14T13:39:42;15.85;;;12.57;;
61393;SDS011;48555;50.952;-0.120;2023-05-14T13:42:08;16.90;;;12.23;;
61393;SDS011;48555;50.952;-0.120;2023-05-14T13:44:33;16.50;;;13.30;;
61393;SDS011;48555;50.952;-0.120;2023-05-14T13:47:00;15.32;;;12.48;;
61393;SDS011;48555;50.952;-0.120;2023-05-14T13:49:25;15.82;;;12.98;;
61393;SDS011;48555;50.952;-0.120;2023-05-14T13:51:50;15.63;;;13.23;;
61393;SDS011;48555;50.952;-0.120;2023-05-14T13:54:16;15.40;;;13.20;;
61393;SDS011;48555;50.952;-0.120;2023-05-14T13:56:42;14.32;;;12.25;;
61393;SDS011;48555;50.952;-0.120;2023-05-14T13:59:07;16.75;;;13.93;;
61393;SDS011;48555;50.952;-0.120;2023-05-14T14:01:32;16.90;;;13.45;;
61393;SDS011;48555;50.952;-0.120;2023-05-14T14:03:58;15.65;;;13.40;;
61393;SDS011;48555;50.952;-0.120;2023-05-14T14:06:24;15.10;;;12.95;;
61393;SDS011;48555;50.952;-0.120;2023-05-14T14:08:51;16.17;;;13.25;;
61393;SDS011;48555;50.952;-0.120;2023-05-14T14:11:17;15.93;;;12.70;;
61393;SDS011;48555;50.952;-0.120;2023-05-14T14:13:42;15.43;;;13.20;;
61393;SDS011;48555;50.952;-0.120;2023-05-14T14:16:08;15.35;;;13.68;;
61393;SDS011;48555;50.952;-0.120;2023-05-14T14:18:34;14.57;;;12.38;;
61393;SDS011;48555;50.952;-0.120;2023-05-14T14:20:59;14.65;;;12.23;;